Greater Peoria Regional Airport
KPIA : rendu visible

Aérodrome :











RETROUVEZ-NOUS SUR...

 
LOGIN :

S'inscrire | Disclaimer

   EN    FR    IT 

 









Légende :    VFR   VFR Marginal   IFR   IFR Intensif   IFR Très Intensif
Visi : 
Plafond : 
>= 8 km
>= 3000ft
5 à 8 km
1000 à 3000 ft
1500m à 5 km
500 à 1000 ft
800 à 1500m
200 à 500 ft
< 800m
< 200 ft
Symboles :   Orages  Brouillard  Fortes neiges  Fortes précipitations  Vent > 20 kt






- Altitude de l'aérodrome : 660 ft
- Code IATA : PIA


KPIA - Greater Peoria Regional

DERNIER METAR :
  • 191454Z 30003KT 2 1/2SM -RA BR OVC005 03/02 A2976 RMK AO2 SLP083 P0003 60011 T00330022 51022

METARs EXPIRÉS :
  • 191440Z 00000KT 2 1/2SM -RA BR BKN004 OVC019 03/02 A2976 RMK AO2 CIG 003V007 P0002 T00330022
  • 191407Z 00000KT 2 1/2SM -RA BR BKN006 OVC017 03/02 A2974 RMK AO2 CIG 004V009 P0002 T00280017
  • 191354Z 00000KT 2 1/2SM -RA BR SCT008 BKN018 OVC034 03/02 A2974 RMK AO2 SLP076 P0007 T00280017
  • 191340Z 00000KT 2 1/2SM RA BR SCT008 BKN027 OVC034 03/02 A2974 RMK AO2 P0005 T00280017
  • 191334Z 00000KT 3SM RA BR SCT010 BKN027 OVC034 03/02 A2974 RMK AO2 P0004 T00280017
  • 191324Z 00000KT 3SM -RA BR BKN009 BKN016 OVC029 03/02 A2974 RMK AO2 P0003 T00280017
  • 191301Z 00000KT 3SM -RA BR BKN009 BKN024 OVC041 03/02 A2973 RMK AO2 P0001 T00280017
  • 191254Z 00000KT 4SM -RA BR FEW009 FEW024 OVC039 03/01 A2973 RMK AO2 RAB25 SLP073 P0001 T00280011

TAF KPIA
Valide du 19 à 15h jusqu'au 20 à 12h UTC


191433Z 1915/2012 VRB03KT 2SM -RA BR OVC006
FM191600 28006KT P6SM VCSH OVC006
FM191700 30013KT P6SM OVC018
FM200100 VRB04KT P6SM SCT080



MET'MAP, la Météo Aéronautique d'un coup d'oeil ! - Copyright ORBIFLY Décembre 2007 - Disclaimer

ORBIFLY MET'MAP TEAM :

Programmation & Développement : Alexandra Zaïnal
Conception & Développement : Baudouin d'Aumeries
Co-Programmation & Développement : Marc-Olivier Méhu
Soutien technique & logistique : Manuel Goepfert

Contact : metmap@orbifly.com




SOURCES & CREDITS :

   NOAA       Earth
Advisory